createdAt,value
2018-04-28T00:00:41.110Z,1001.7
2018-04-28T00:01:43.496Z,1001.7
2018-04-28T00:02:45.883Z,1001.7
2018-04-28T00:03:48.557Z,1001.6
2018-04-28T00:04:50.949Z,1001.7
2018-04-28T00:05:53.466Z,1001.7
2018-04-28T00:06:56.000Z,1001.6
2018-04-28T00:07:58.468Z,1001.7
2018-04-28T00:09:00.760Z,1001.7
2018-04-28T00:10:03.557Z,1001.6
2018-04-28T00:11:05.947Z,1001.6
2018-04-28T00:12:08.321Z,1001.7
2018-04-28T00:13:10.715Z,1001.7
2018-04-28T00:14:13.090Z,1001.7
2018-04-28T00:15:15.747Z,1001.7
2018-04-28T00:16:18.180Z,1001.7
2018-04-28T00:17:20.653Z,1001.7
2018-04-28T00:18:23.171Z,1001.7
2018-04-28T00:19:25.793Z,1001.6
2018-04-28T00:20:28.593Z,1001.6
2018-04-28T00:21:30.972Z,1001.6
2018-04-28T00:22:33.374Z,1001.6
2018-04-28T00:23:36.061Z,1001.6
2018-04-28T00:24:39.003Z,1001.6
2018-04-28T00:25:41.393Z,1001.6
2018-04-28T00:26:43.772Z,1001.6
2018-04-28T00:27:46.160Z,1001.6
2018-04-28T00:28:48.549Z,1001.5
2018-04-28T00:29:50.925Z,1001.5
2018-04-28T00:30:54.252Z,1001.5
2018-04-28T00:31:56.656Z,1001.5
2018-04-28T00:32:59.035Z,1001.5
2018-04-28T00:34:01.803Z,1001.5
2018-04-28T00:35:04.463Z,1001.5
2018-04-28T00:36:06.848Z,1001.5
2018-04-28T00:37:09.231Z,1001.5
2018-04-28T00:38:11.617Z,1001.4
2018-04-28T00:39:14.301Z,1001.5
2018-04-28T00:40:16.683Z,1001.5
2018-04-28T00:41:19.063Z,1001.4
2018-04-28T00:42:21.444Z,1001.4
2018-04-28T00:43:24.117Z,1001.4
2018-04-28T00:44:26.801Z,1001.4
2018-04-28T00:45:29.178Z,1001.4
2018-04-28T00:46:31.576Z,1001.4
2018-04-28T00:47:34.239Z,1001.4
2018-04-28T00:48:36.621Z,1001.4
2018-04-28T00:49:39.003Z,1001.4
2018-04-28T00:50:41.386Z,1001.4
2018-04-28T00:51:43.766Z,1001.4
2018-04-28T00:52:46.428Z,1001.4
2018-04-28T00:53:49.466Z,1001.4
2018-04-28T00:54:51.854Z,1001.3
2018-04-28T00:55:54.500Z,1001.3
2018-04-28T00:56:56.890Z,1001.3
2018-04-28T00:57:59.829Z,1001.3
2018-04-28T00:59:02.219Z,1001.3
2018-04-28T01:00:04.607Z,1001.3
2018-04-28T01:01:07.284Z,1001.3
2018-04-28T01:02:09.667Z,1001.3
2018-04-28T01:03:12.054Z,1001.3
2018-04-28T01:04:14.712Z,1001.3
2018-04-28T01:05:17.400Z,1001.3
2018-04-28T01:06:19.785Z,1001.3
2018-04-28T01:07:22.160Z,1001.2
2018-04-28T01:08:25.210Z,1001.2
2018-04-28T01:09:27.876Z,1001.3
2018-04-28T01:10:30.247Z,1001.2
2018-04-28T01:11:32.638Z,1001.2
2018-04-28T01:12:35.007Z,1001.2
2018-04-28T01:13:37.394Z,1001.1
2018-04-28T01:14:39.776Z,1001.2
2018-04-28T01:15:42.160Z,1001.2
2018-04-28T01:16:44.541Z,1001.1
2018-04-28T01:17:47.218Z,1001.1
2018-04-28T01:18:49.593Z,1001.1
2018-04-28T01:19:51.968Z,1001.1
2018-04-28T01:20:54.343Z,1001.1
2018-04-28T01:21:56.743Z,1001.1
2018-04-28T01:22:59.118Z,1001.1
2018-04-28T01:24:01.510Z,1001.1
2018-04-28T01:25:04.577Z,1001.1
2018-04-28T01:26:07.243Z,1001.1
2018-04-28T01:27:09.633Z,1001.1
2018-04-28T01:28:12.012Z,1001.1
2018-04-28T01:29:14.385Z,1001.1
2018-04-28T01:30:17.152Z,1001.1
2018-04-28T01:31:19.536Z,1001.1
2018-04-28T01:32:22.499Z,1001.1
2018-04-28T01:33:25.169Z,1001.1
2018-04-28T01:34:27.542Z,1001.1
2018-04-28T01:35:30.214Z,1001.2
2018-04-28T01:36:32.600Z,1001.2
2018-04-28T01:37:34.971Z,1001.2
2018-04-28T01:38:37.354Z,1001.2
2018-04-28T01:39:39.732Z,1001.2
2018-04-28T01:40:42.410Z,1001.2
2018-04-28T01:41:44.801Z,1001.1
2018-04-28T01:42:47.186Z,1001.2
2018-04-28T01:43:49.550Z,1001.1
2018-04-28T01:44:52.211Z,1001.2
2018-04-28T01:45:54.910Z,1001.1
2018-04-28T01:46:57.286Z,1001.1
2018-04-28T01:47:59.746Z,1001.2
2018-04-28T01:49:02.062Z,1001.2
2018-04-28T01:50:04.440Z,1001.2
2018-04-28T01:51:06.820Z,1001.1
2018-04-28T01:52:09.203Z,1001.1
2018-04-28T01:53:11.595Z,1001.2
2018-04-28T01:54:13.980Z,1001.2
2018-04-28T01:55:16.359Z,1001.1
2018-04-28T01:56:18.739Z,1001.1
2018-04-28T01:57:21.117Z,1001.2
2018-04-28T01:58:23.790Z,1001.2
2018-04-28T01:59:26.454Z,1001.2
2018-04-28T02:00:28.830Z,1001.1
2018-04-28T02:01:31.492Z,1001.2
2018-04-28T02:02:33.872Z,1001.1
2018-04-28T02:03:36.530Z,1001.1
2018-04-28T02:04:38.908Z,1001.1
2018-04-28T02:05:41.566Z,1001.1
2018-04-28T02:06:44.327Z,1001.1
2018-04-28T02:07:46.719Z,1001.2
2018-04-28T02:08:49.096Z,1001.2
2018-04-28T02:09:51.480Z,1001.1
2018-04-28T02:10:54.150Z,1001.1
2018-04-28T02:11:56.917Z,1001.1
2018-04-28T02:12:59.304Z,1001.1
2018-04-28T02:14:01.679Z,1001.1
2018-04-28T02:15:04.060Z,1001.1
2018-04-28T02:16:06.738Z,1001.1
2018-04-28T02:17:09.120Z,1001.1
2018-04-28T02:18:11.508Z,1001.1
2018-04-28T02:19:13.878Z,1001.1
2018-04-28T02:20:16.546Z,1001.1
2018-04-28T02:21:18.923Z,1001.1
2018-04-28T02:22:21.302Z,1001.1
2018-04-28T02:23:23.683Z,1001
2018-04-28T02:24:26.070Z,1001.1
2018-04-28T02:25:28.723Z,1001.1
2018-04-28T02:26:31.118Z,1001.1
2018-04-28T02:27:33.781Z,1001.2
2018-04-28T02:28:36.163Z,1001.2
2018-04-28T02:29:38.829Z,1001.1
2018-04-28T02:30:41.220Z,1001.1
2018-04-28T02:31:44.174Z,1001.1
2018-04-28T02:32:46.947Z,1001.1
2018-04-28T02:33:49.322Z,1001.1
2018-04-28T02:34:52.092Z,1001.1
2018-04-28T02:35:54.481Z,1001.1
2018-04-28T02:36:57.143Z,1001.1
2018-04-28T02:37:59.813Z,1001.1
2018-04-28T02:39:02.512Z,1001
2018-04-28T02:40:05.291Z,1001
2018-04-28T02:41:07.957Z,1001.1
2018-04-28T02:42:10.625Z,1001
2018-04-28T02:43:13.281Z,1001.1
2018-04-28T02:44:16.335Z,1001
2018-04-28T02:45:18.714Z,1001.1
2018-04-28T02:46:21.488Z,1001.1
2018-04-28T02:47:24.151Z,1001.1
2018-04-28T02:48:26.821Z,1001.1
2018-04-28T02:49:29.495Z,1001
2018-04-28T02:50:32.242Z,1001
2018-04-28T02:51:34.904Z,1001.1
2018-04-28T02:52:37.297Z,1001.1
2018-04-28T02:53:39.964Z,1001.1
2018-04-28T02:54:42.945Z,1001.1
2018-04-28T02:55:45.994Z,1001.1
2018-04-28T02:56:48.373Z,1001.1
2018-04-28T02:57:51.153Z,1001.1
2018-04-28T02:58:53.837Z,1001.1
2018-04-28T02:59:56.220Z,1001.1
2018-04-28T03:00:59.181Z,1001.1
2018-04-28T03:02:01.563Z,1001
2018-04-28T03:03:03.942Z,1001
2018-04-28T03:04:06.328Z,1001
2018-04-28T03:05:09.001Z,1001.1
2018-04-28T03:06:11.382Z,1001
2018-04-28T03:07:14.053Z,1001.1
2018-04-28T03:08:17.020Z,1001.1
2018-04-28T03:09:20.370Z,1001.1
2018-04-28T03:10:22.760Z,1001.2
2018-04-28T03:11:25.798Z,1001.2
2018-04-28T03:12:28.187Z,1001.2
2018-04-28T03:13:31.142Z,1001.2
2018-04-28T03:14:33.527Z,1001.2
2018-04-28T03:15:35.919Z,1001.1
2018-04-28T03:16:38.302Z,1001.2
2018-04-28T03:17:40.688Z,1001.1
2018-04-28T03:18:43.072Z,1001.2
2018-04-28T03:19:45.743Z,1001.2
2018-04-28T03:20:48.399Z,1001.2
2018-04-28T03:21:50.774Z,1001.2
2018-04-28T03:22:53.151Z,1001.2
2018-04-28T03:23:55.547Z,1001.2
2018-04-28T03:24:58.203Z,1001.3
2018-04-28T03:26:00.581Z,1001.3
2018-04-28T03:27:02.969Z,1001.3
2018-04-28T03:28:05.354Z,1001.3
2018-04-28T03:29:08.124Z,1001.3
2018-04-28T03:30:10.510Z,1001.3
2018-04-28T03:31:13.273Z,1001.4
2018-04-28T03:32:15.945Z,1001.3
2018-04-28T03:33:18.336Z,1001.4
2018-04-28T03:34:20.726Z,1001.4
2018-04-28T03:35:23.406Z,1001.4
2018-04-28T03:36:26.348Z,1001.4
2018-04-28T03:37:28.723Z,1001.4
2018-04-28T03:38:31.105Z,1001.3
2018-04-28T03:39:33.479Z,1001.3
2018-04-28T03:40:35.859Z,1001.3
2018-04-28T03:41:38.247Z,1001.4
2018-04-28T03:42:40.608Z,1001.3
2018-04-28T03:43:42.990Z,1001.3
2018-04-28T03:44:45.686Z,1001.3
2018-04-28T03:45:48.058Z,1001.4
2018-04-28T03:46:50.438Z,1001.3
2018-04-28T03:47:52.818Z,1001.3
2018-04-28T03:48:55.196Z,1001.3
2018-04-28T03:49:57.573Z,1001.3
2018-04-28T03:50:59.951Z,1001.3
2018-04-28T03:52:02.361Z,1001.3
2018-04-28T03:53:04.706Z,1001.3
2018-04-28T03:54:07.482Z,1001.3
2018-04-28T03:55:10.250Z,1001.3
2018-04-28T03:56:12.637Z,1001.3
2018-04-28T03:57:15.018Z,1001.3
2018-04-28T03:58:17.414Z,1001.3
2018-04-28T03:59:19.787Z,1001.3
2018-04-28T04:00:22.173Z,1001.3
2018-04-28T04:01:24.851Z,1001.3
2018-04-28T04:02:27.233Z,1001.4
2018-04-28T04:03:29.614Z,1001.4
2018-04-28T04:04:32.387Z,1001.5
2018-04-28T04:05:35.043Z,1001.5
2018-04-28T04:06:37.428Z,1001.5
2018-04-28T04:07:39.808Z,1001.5
2018-04-28T04:08:42.186Z,1001.5
2018-04-28T04:09:44.858Z,1001.5
2018-04-28T04:10:47.238Z,1001.5
2018-04-28T04:11:49.907Z,1001.5
2018-04-28T04:12:52.581Z,1001.5
2018-04-28T04:13:55.246Z,1001.5
2018-04-28T04:14:57.619Z,1001.5
2018-04-28T04:16:00.019Z,1001.5
2018-04-28T04:17:02.669Z,1001.5
2018-04-28T04:18:05.047Z,1001.5
2018-04-28T04:19:07.422Z,1001.5
2018-04-28T04:20:09.800Z,1001.5
2018-04-28T04:21:12.467Z,1001.5
2018-04-28T04:22:15.228Z,1001.5
2018-04-28T04:23:17.616Z,1001.5
2018-04-28T04:24:20.282Z,1001.5
2018-04-28T04:25:23.049Z,1001.5
2018-04-28T04:26:25.510Z,1001.5
2018-04-28T04:27:28.117Z,1001.5
2018-04-28T04:28:30.489Z,1001.5
2018-04-28T04:29:32.863Z,1001.5
2018-04-28T04:30:35.246Z,1001.5
2018-04-28T04:31:37.911Z,1001.5
2018-04-28T04:32:40.312Z,1001.5
2018-04-28T04:33:42.690Z,1001.5
2018-04-28T04:34:45.653Z,1001.6
2018-04-28T04:35:48.032Z,1001.5
2018-04-28T04:36:50.696Z,1001.5
2018-04-28T04:37:53.082Z,1001.5
2018-04-28T04:38:55.854Z,1001.5
2018-04-28T04:39:58.229Z,1001.6
2018-04-28T04:41:00.609Z,1001.6
2018-04-28T04:42:02.999Z,1001.5
2018-04-28T04:43:05.385Z,1001.5
2018-04-28T04:44:08.040Z,1001.6
2018-04-28T04:45:10.420Z,1001.6
2018-04-28T04:46:12.799Z,1001.6
2018-04-28T04:47:15.171Z,1001.6
2018-04-28T04:48:17.547Z,1001.6
2018-04-28T04:49:19.934Z,1001.6
2018-04-28T04:50:22.317Z,1001.6
2018-04-28T04:51:24.697Z,1001.5
2018-04-28T04:52:27.371Z,1001.6
2018-04-28T04:53:30.423Z,1001.5
2018-04-28T04:54:33.091Z,1001.6
2018-04-28T04:55:35.479Z,1001.6
2018-04-28T04:56:38.127Z,1001.5
2018-04-28T04:57:40.893Z,1001.6
2018-04-28T04:58:43.276Z,1001.5
2018-04-28T04:59:45.652Z,1001.6
2018-04-28T05:00:48.037Z,1001.6
2018-04-28T05:01:50.421Z,1001.5
2018-04-28T05:02:52.801Z,1001.5
2018-04-28T05:03:55.182Z,1001.6
2018-04-28T05:04:57.953Z,1001.6
2018-04-28T05:06:00.329Z,1001.6
2018-04-28T05:07:02.706Z,1001.6
2018-04-28T05:08:05.385Z,1001.5
2018-04-28T05:09:08.147Z,1001.5
2018-04-28T05:10:10.527Z,1001.5
2018-04-28T05:11:12.905Z,1001.5
2018-04-28T05:12:15.284Z,1001.5
2018-04-28T05:13:17.659Z,1001.6
2018-04-28T05:14:20.608Z,1001.6
2018-04-28T05:15:23.366Z,1001.6
2018-04-28T05:16:26.041Z,1001.6
2018-04-28T05:17:28.714Z,1001.6
2018-04-28T05:18:31.761Z,1001.6
2018-04-28T05:19:34.144Z,1001.7
2018-04-28T05:20:36.535Z,1001.7
2018-04-28T05:21:38.923Z,1001.6
2018-04-28T05:22:41.301Z,1001.7
2018-04-28T05:23:43.683Z,1001.6
2018-04-28T05:24:46.076Z,1001.7
2018-04-28T05:25:48.453Z,1001.7
2018-04-28T05:26:50.838Z,1001.7
2018-04-28T05:27:53.213Z,1001.7
2018-04-28T05:28:55.875Z,1001.7
2018-04-28T05:29:58.272Z,1001.7
2018-04-28T05:31:00.636Z,1001.7
2018-04-28T05:32:03.025Z,1001.7
2018-04-28T05:33:05.394Z,1001.8
2018-04-28T05:34:07.785Z,1001.8
2018-04-28T05:35:10.165Z,1001.8
2018-04-28T05:36:12.543Z,1001.8
2018-04-28T05:37:15.307Z,1001.8
2018-04-28T05:38:17.696Z,1001.8
2018-04-28T05:39:20.355Z,1001.8
2018-04-28T05:40:22.738Z,1001.8
2018-04-28T05:41:25.125Z,1001.9
2018-04-28T05:42:28.190Z,1001.8
2018-04-28T05:43:31.628Z,1001.8
2018-04-28T05:44:34.013Z,1001.9
2018-04-28T05:45:36.702Z,1001.9
2018-04-28T05:46:39.091Z,1001.8
2018-04-28T05:47:41.755Z,1001.9
2018-04-28T05:48:44.145Z,1001.9
2018-04-28T05:49:46.527Z,1001.9
2018-04-28T05:50:48.913Z,1002
2018-04-28T05:51:51.858Z,1001.9
2018-04-28T05:52:54.520Z,1002
2018-04-28T05:53:56.901Z,1002
2018-04-28T05:54:59.289Z,1001.9
2018-04-28T05:56:01.653Z,1001.9
2018-04-28T05:57:04.038Z,1002
2018-04-28T05:58:06.415Z,1002
2018-04-28T05:59:08.797Z,1002
2018-04-28T06:00:11.185Z,1002
2018-04-28T06:01:13.852Z,1002
2018-04-28T06:02:16.517Z,1002
2018-04-28T06:03:18.990Z,1002
2018-04-28T06:04:21.299Z,1002
2018-04-28T06:05:23.666Z,1002
2018-04-28T06:06:26.051Z,1002
2018-04-28T06:07:28.818Z,1002
2018-04-28T06:08:31.589Z,1002
2018-04-28T06:09:33.971Z,1002
2018-04-28T06:10:36.351Z,1002
2018-04-28T06:11:38.737Z,1002
2018-04-28T06:12:41.131Z,1001.9
2018-04-28T06:13:43.540Z,1002
2018-04-28T06:14:45.900Z,1002
2018-04-28T06:15:48.291Z,1002
2018-04-28T06:16:50.958Z,1002
2018-04-28T06:17:53.337Z,1002
2018-04-28T06:18:55.723Z,1001.9
2018-04-28T06:19:58.193Z,1002
2018-04-28T06:21:00.507Z,1002
2018-04-28T06:22:02.893Z,1002
2018-04-28T06:23:05.557Z,1002
2018-04-28T06:24:07.940Z,1002
2018-04-28T06:25:10.326Z,1002
2018-04-28T06:26:12.707Z,1002
2018-04-28T06:27:15.079Z,1002
2018-04-28T06:28:17.468Z,1002
2018-04-28T06:29:19.849Z,1002
2018-04-28T06:30:22.228Z,1002
2018-04-28T06:31:24.898Z,1002
2018-04-28T06:32:27.281Z,1002
2018-04-28T06:33:29.951Z,1002
2018-04-28T06:34:32.632Z,1002
2018-04-28T06:35:35.019Z,1002.1
2018-04-28T06:36:37.692Z,1002
2018-04-28T06:37:40.092Z,1002.1
2018-04-28T06:38:42.457Z,1002.1
2018-04-28T06:39:45.124Z,1002.1
2018-04-28T06:40:47.510Z,1002.2
2018-04-28T06:41:49.893Z,1002.2
2018-04-28T06:42:52.277Z,1002.2
2018-04-28T06:43:54.662Z,1002.2
2018-04-28T06:44:57.051Z,1002.2
2018-04-28T06:45:59.428Z,1002.2
2018-04-28T06:47:01.817Z,1002.2
2018-04-28T06:48:04.193Z,1002.2
2018-04-28T06:49:06.866Z,1002.2
2018-04-28T06:50:09.247Z,1002.2
2018-04-28T06:51:11.822Z,1002.2
2018-04-28T06:52:14.012Z,1002.2
2018-04-28T06:53:16.409Z,1002.2
2018-04-28T06:54:18.785Z,1002.3
2018-04-28T06:55:21.443Z,1002.2
2018-04-28T06:56:23.828Z,1002.2
2018-04-28T06:57:26.222Z,1002.1
2018-04-28T06:58:28.642Z,1002.1
2018-04-28T06:59:31.762Z,1002.1
2018-04-28T07:00:34.710Z,1002.2
2018-04-28T07:01:37.093Z,1002.2
2018-04-28T07:02:39.775Z,1002.1
2018-04-28T07:03:42.164Z,1002.2
2018-04-28T07:04:44.540Z,1002.2
2018-04-28T07:05:46.919Z,1002.1
2018-04-28T07:06:49.303Z,1002.2
2018-04-28T07:07:51.687Z,1002.2
2018-04-28T07:08:54.462Z,1002.2
2018-04-28T07:09:56.835Z,1002.2
2018-04-28T07:10:59.218Z,1002.2
2018-04-28T07:12:01.604Z,1002.2
2018-04-28T07:13:03.995Z,1002.2
2018-04-28T07:14:06.386Z,1002.2
2018-04-28T07:15:08.773Z,1002.2
2018-04-28T07:16:11.449Z,1002.3
2018-04-28T07:17:13.838Z,1002.2
2018-04-28T07:18:16.511Z,1002.2
2018-04-28T07:19:18.910Z,1002.3
2018-04-28T07:20:21.289Z,1002.2
2018-04-28T07:21:23.676Z,1002.3
2018-04-28T07:22:26.334Z,1002.3
2018-04-28T07:23:28.998Z,1002.3
2018-04-28T07:24:31.386Z,1002.3
2018-04-28T07:25:33.777Z,1002.3
2018-04-28T07:26:36.434Z,1002.2
2018-04-28T07:27:39.107Z,1002.2
2018-04-28T07:28:41.501Z,1002.3
2018-04-28T07:29:43.890Z,1002.2
2018-04-28T07:30:46.284Z,1002.2
2018-04-28T07:31:48.675Z,1002.1
2018-04-28T07:32:51.345Z,1002.1
2018-04-28T07:33:53.734Z,1002.1
2018-04-28T07:34:56.506Z,1002.1
2018-04-28T07:35:58.884Z,1002.1
2018-04-28T07:37:01.284Z,1002.1
2018-04-28T07:38:03.942Z,1002.1
2018-04-28T07:39:06.620Z,1002.1
2018-04-28T07:40:09.281Z,1002.1
2018-04-28T07:41:11.672Z,1002.1
2018-04-28T07:42:14.077Z,1002.1
2018-04-28T07:43:16.462Z,1002.1
2018-04-28T07:44:18.850Z,1002.1
2018-04-28T07:45:21.243Z,1002.1
2018-04-28T07:46:24.225Z,1002
2018-04-28T07:47:27.170Z,1002
2018-04-28T07:48:29.554Z,1002
2018-04-28T07:49:31.941Z,1002
2018-04-28T07:50:34.345Z,1001.9
2018-04-28T07:51:37.015Z,1001.9
2018-04-28T07:52:39.414Z,1001.9
2018-04-28T07:53:41.804Z,1001.9
2018-04-28T07:54:44.203Z,1001.9
2018-04-28T07:55:46.594Z,1001.9
2018-04-28T07:56:49.264Z,1001.9
2018-04-28T07:57:51.658Z,1001.9
2018-04-28T07:58:54.046Z,1001.9
2018-04-28T07:59:56.736Z,1001.9
2018-04-28T08:00:59.142Z,1001.9
2018-04-28T08:02:01.527Z,1001.9
2018-04-28T08:03:04.371Z,1001.9
2018-04-28T08:04:06.762Z,1001.8
2018-04-28T08:05:09.449Z,1001.8
2018-04-28T08:06:11.840Z,1001.8
2018-04-28T08:07:14.635Z,1001.8
2018-04-28T08:08:17.031Z,1001.8
2018-04-28T08:09:19.422Z,1001.8
2018-04-28T08:10:22.108Z,1001.8
2018-04-28T08:11:24.491Z,1001.7
2018-04-28T08:12:26.886Z,1001.7
2018-04-28T08:13:29.282Z,1001.7
2018-04-28T08:14:31.670Z,1001.8
2018-04-28T08:15:34.339Z,1001.8
2018-04-28T08:16:36.733Z,1001.8
2018-04-28T08:17:39.111Z,1001.8
2018-04-28T08:18:41.491Z,1001.8
2018-04-28T08:19:43.886Z,1001.8
2018-04-28T08:20:46.333Z,1001.8
2018-04-28T08:21:49.378Z,1001.8
2018-04-28T08:22:51.776Z,1001.9
2018-04-28T08:23:54.166Z,1001.8
2018-04-28T08:24:56.559Z,1001.9
2018-04-28T08:25:58.968Z,1001.8
2018-04-28T08:27:01.649Z,1001.8
2018-04-28T08:28:04.037Z,1001.8
2018-04-28T08:29:06.427Z,1001.8
2018-04-28T08:30:08.819Z,1001.8
2018-04-28T08:31:11.216Z,1001.8
2018-04-28T08:32:13.621Z,1001.8
2018-04-28T08:33:15.991Z,1001.8
2018-04-28T08:34:18.661Z,1001.8
2018-04-28T08:35:21.061Z,1001.9
2018-04-28T08:36:23.837Z,1001.9
2018-04-28T08:37:26.263Z,1001.8
2018-04-28T08:38:28.622Z,1001.8
2018-04-28T08:39:31.020Z,1001.8
2018-04-28T08:40:33.424Z,1001.8
2018-04-28T08:41:35.808Z,1001.8
2018-04-28T08:42:38.207Z,1001.9
2018-04-28T08:43:40.591Z,1001.8
2018-04-28T08:44:43.008Z,1001.8
2018-04-28T08:45:45.382Z,1001.9
2018-04-28T08:46:48.084Z,1001.8
2018-04-28T08:47:50.865Z,1001.8
2018-04-28T08:48:53.269Z,1001.9
2018-04-28T08:49:55.653Z,1001.9
2018-04-28T08:50:58.086Z,1001.9
2018-04-28T08:52:00.846Z,1001.9
2018-04-28T08:53:03.243Z,1001.9
2018-04-28T08:54:05.932Z,1001.9
2018-04-28T08:55:08.324Z,1001.9
2018-04-28T08:56:10.740Z,1001.9
2018-04-28T08:57:13.434Z,1001.9
2018-04-28T08:58:15.817Z,1001.8
2018-04-28T08:59:18.507Z,1001.9
2018-04-28T09:00:21.177Z,1001.9
2018-04-28T09:01:23.885Z,1001.9
2018-04-28T09:02:26.286Z,1001.9
2018-04-28T09:03:28.677Z,1001.9
2018-04-28T09:04:31.073Z,1001.9
2018-04-28T09:05:33.478Z,1001.9
2018-04-28T09:06:35.879Z,1001.9
2018-04-28T09:07:38.263Z,1002
2018-04-28T09:08:40.968Z,1002
2018-04-28T09:09:43.368Z,1002
2018-04-28T09:10:45.762Z,1002
2018-04-28T09:11:48.154Z,1002
2018-04-28T09:12:50.551Z,1002
2018-04-28T09:13:52.952Z,1002
2018-04-28T09:14:55.381Z,1002
2018-04-28T09:15:57.767Z,1002
2018-04-28T09:17:00.170Z,1002
2018-04-28T09:18:02.564Z,1002
2018-04-28T09:19:04.959Z,1002.1
2018-04-28T09:20:07.643Z,1002.1
2018-04-28T09:21:10.039Z,1002
2018-04-28T09:22:12.743Z,1001.9
2018-04-28T09:23:15.143Z,1002
2018-04-28T09:24:17.535Z,1002
2018-04-28T09:25:19.936Z,1002
2018-04-28T09:26:22.357Z,1002.1
2018-04-28T09:27:25.136Z,1002
2018-04-28T09:28:28.101Z,1002.1
2018-04-28T09:29:30.505Z,1002
2018-04-28T09:30:32.898Z,1002.1
2018-04-28T09:31:35.288Z,1002.2
2018-04-28T09:32:37.708Z,1002.1
2018-04-28T09:33:40.121Z,1002.2
2018-04-28T09:34:42.908Z,1002.1
2018-04-28T09:35:45.431Z,1002
2018-04-28T09:36:48.121Z,1002
2018-04-28T09:37:50.527Z,1002
2018-04-28T09:38:53.217Z,1002
2018-04-28T09:39:55.610Z,1002.1
2018-04-28T09:40:58.003Z,1002.1
2018-04-28T09:42:00.421Z,1002
2018-04-28T09:43:02.810Z,1002.1
2018-04-28T09:44:05.600Z,1002
2018-04-28T09:45:08.007Z,1002
2018-04-28T09:46:10.425Z,1002.1
2018-04-28T09:47:12.806Z,1002.1
2018-04-28T09:48:15.208Z,1002
2018-04-28T09:49:17.618Z,1002.1
2018-04-28T09:50:20.011Z,1002.1
2018-04-28T09:51:22.695Z,1002.1
2018-04-28T09:52:25.104Z,1002.1
2018-04-28T09:53:27.496Z,1002.1
2018-04-28T09:54:30.193Z,1002.1
2018-04-28T09:55:32.593Z,1002.1
2018-04-28T09:56:35.261Z,1002.2
2018-04-28T09:57:37.667Z,1002.1
2018-04-28T09:58:40.068Z,1002.2
2018-04-28T09:59:42.854Z,1002.1
2018-04-28T10:00:45.264Z,1002.2
2018-04-28T10:01:47.946Z,1002.2
2018-04-28T10:02:51.023Z,1002.1
2018-04-28T10:03:53.816Z,1002.3
2018-04-28T10:04:56.209Z,1002.3
2018-04-28T10:05:58.669Z,1002.2
2018-04-28T10:07:01.491Z,1002.2
2018-04-28T10:08:04.277Z,1002.3
2018-04-28T10:09:06.678Z,1002.2
2018-04-28T10:10:09.072Z,1002.2
2018-04-28T10:11:11.475Z,1002.2
2018-04-28T10:12:13.883Z,1002.2
2018-04-28T10:13:16.291Z,1002.2
2018-04-28T10:14:18.994Z,1002.2
2018-04-28T10:15:21.383Z,1002.2
2018-04-28T10:16:23.782Z,1002.2
2018-04-28T10:17:26.184Z,1002.2
2018-04-28T10:18:28.863Z,1002.2
2018-04-28T10:19:31.262Z,1002.2
2018-04-28T10:20:33.662Z,1002.1
2018-04-28T10:21:36.054Z,1002.1
2018-04-28T10:22:38.488Z,1002.1
2018-04-28T10:23:40.892Z,1002.1
2018-04-28T10:24:43.563Z,1002.1
2018-04-28T10:25:45.968Z,1002.1
2018-04-28T10:26:48.663Z,1002
2018-04-28T10:27:51.067Z,1002.1
2018-04-28T10:28:53.760Z,1002.1
2018-04-28T10:29:56.153Z,1002
2018-04-28T10:30:59.008Z,1002
2018-04-28T10:32:01.358Z,1002
2018-04-28T10:33:04.430Z,1002
2018-04-28T10:34:06.829Z,1002
2018-04-28T10:35:09.229Z,1002
2018-04-28T10:36:11.617Z,1002
2018-04-28T10:37:14.039Z,1002
2018-04-28T10:38:16.441Z,1002
2018-04-28T10:39:18.836Z,1002
2018-04-28T10:40:21.243Z,1002
2018-04-28T10:41:23.640Z,1001.9
2018-04-28T10:42:26.322Z,1001.9
2018-04-28T10:43:28.733Z,1002
2018-04-28T10:44:31.131Z,1002
2018-04-28T10:45:33.533Z,1001.9
2018-04-28T10:46:35.929Z,1002
2018-04-28T10:47:38.523Z,1001.9
2018-04-28T10:48:41.245Z,1001.9
2018-04-28T10:49:43.942Z,1002
2018-04-28T10:50:46.352Z,1001.9
2018-04-28T10:51:48.751Z,1001.9
2018-04-28T10:52:51.438Z,1001.9
2018-04-28T10:53:53.911Z,1001.9
2018-04-28T10:54:56.833Z,1001.9
2018-04-28T10:55:59.227Z,1001.9
2018-04-28T10:57:01.630Z,1002
2018-04-28T10:58:04.028Z,1001.9
2018-04-28T10:59:06.736Z,1002
2018-04-28T11:00:09.711Z,1001.9
2018-04-28T11:01:12.103Z,1001.9
2018-04-28T11:02:14.502Z,1002
2018-04-28T11:03:16.921Z,1002
2018-04-28T11:04:19.322Z,1002
2018-04-28T11:05:21.721Z,1002.1
2018-04-28T11:06:24.124Z,1002.1
2018-04-28T11:07:26.531Z,1002
2018-04-28T11:08:28.942Z,1002
2018-04-28T11:09:31.348Z,1002
2018-04-28T11:10:33.733Z,1002
2018-04-28T11:11:36.135Z,1002
2018-04-28T11:12:38.853Z,1002.1
2018-04-28T11:13:41.639Z,1002
2018-04-28T11:14:44.032Z,1002.1
2018-04-28T11:15:46.440Z,1002
2018-04-28T11:16:48.834Z,1002.1
2018-04-28T11:17:51.520Z,1002.2
2018-04-28T11:18:53.932Z,1002.2
2018-04-28T11:19:56.694Z,1002.2
2018-04-28T11:20:59.325Z,1002
2018-04-28T11:22:02.030Z,1002.1
2018-04-28T11:23:04.801Z,1002.1
2018-04-28T11:24:07.488Z,1002.1
2018-04-28T11:25:09.892Z,1002.1
2018-04-28T11:26:12.663Z,1002.2
2018-04-28T11:27:15.071Z,1002
2018-04-28T11:28:17.764Z,1002.1
2018-04-28T11:29:20.160Z,1002.1
2018-04-28T11:30:22.845Z,1002.1
2018-04-28T11:31:25.248Z,1002
2018-04-28T11:32:27.646Z,1002
2018-04-28T11:33:30.330Z,1002
2018-04-28T11:34:32.726Z,1002.1
2018-04-28T11:35:35.123Z,1002
2018-04-28T11:36:37.553Z,1002
2018-04-28T11:37:40.341Z,1002
2018-04-28T11:38:43.053Z,1002
2018-04-28T11:39:45.461Z,1002
2018-04-28T11:40:48.144Z,1002.1
2018-04-28T11:41:50.546Z,1002.1
2018-04-28T11:42:52.943Z,1002
2018-04-28T11:43:55.343Z,1002.1
2018-04-28T11:44:58.034Z,1002.1
2018-04-28T11:46:00.716Z,1002.1
2018-04-28T11:47:03.127Z,1002.1
2018-04-28T11:48:05.807Z,1002.2
2018-04-28T11:49:08.206Z,1002.2
2018-04-28T11:50:10.610Z,1002.1
2018-04-28T11:51:13.014Z,1002.1
2018-04-28T11:52:15.405Z,1002.1
2018-04-28T11:53:17.895Z,1002.1
2018-04-28T11:54:20.196Z,1002.2
2018-04-28T11:55:22.597Z,1002.2
2018-04-28T11:56:25.001Z,1002.2
2018-04-28T11:57:27.397Z,1002.1
2018-04-28T11:58:29.805Z,1002.2
2018-04-28T11:59:32.484Z,1002.2
2018-04-28T12:00:34.873Z,1002.3
2018-04-28T12:01:37.277Z,1002.3
2018-04-28T12:02:39.724Z,1002.2
2018-04-28T12:03:42.068Z,1002.3
2018-04-28T12:04:44.464Z,1002.3
2018-04-28T12:05:46.947Z,1002.2
2018-04-28T12:06:49.673Z,1002.2
2018-04-28T12:07:52.357Z,1002.2
2018-04-28T12:08:54.756Z,1002.2
2018-04-28T12:09:57.436Z,1002.2
2018-04-28T12:10:59.854Z,1002.1
2018-04-28T12:12:02.223Z,1002.2
2018-04-28T12:13:05.011Z,1002.2
2018-04-28T12:14:07.416Z,1002.3
2018-04-28T12:15:09.811Z,1002.1
2018-04-28T12:16:12.224Z,1002.2
2018-04-28T12:17:14.634Z,1002.2
2018-04-28T12:18:17.306Z,1002.2
2018-04-28T12:19:20.379Z,1002.3
2018-04-28T12:20:23.057Z,1002.2
2018-04-28T12:21:25.452Z,1002.2
2018-04-28T12:22:27.855Z,1002.3
2018-04-28T12:23:30.249Z,1002.2
2018-04-28T12:24:32.651Z,1002.2
2018-04-28T12:25:35.064Z,1002.2
2018-04-28T12:26:37.735Z,1002.2
2018-04-28T12:27:40.131Z,1002.2
2018-04-28T12:28:42.528Z,1002.2
2018-04-28T12:29:45.373Z,1002.2
2018-04-28T12:30:48.133Z,1002.3
2018-04-28T12:31:50.918Z,1002.3
2018-04-28T12:32:53.701Z,1002.2
2018-04-28T12:33:56.385Z,1002.2
2018-04-28T12:34:59.061Z,1002.2
2018-04-28T12:36:01.474Z,1002.2
2018-04-28T12:37:04.604Z,1002.3
2018-04-28T12:38:07.003Z,1002.2
2018-04-28T12:39:09.395Z,1002.2
2018-04-28T12:40:12.352Z,1002.3
2018-04-28T12:41:15.061Z,1002.3
2018-04-28T12:42:17.739Z,1002.3
2018-04-28T12:43:20.131Z,1002.3
2018-04-28T12:44:22.526Z,1002.3
2018-04-28T12:45:24.932Z,1002.3
2018-04-28T12:46:27.327Z,1002.2
2018-04-28T12:47:29.714Z,1002.3
2018-04-28T12:48:32.116Z,1002.3
2018-04-28T12:49:34.789Z,1002.3
2018-04-28T12:50:37.193Z,1002.3
2018-04-28T12:51:40.054Z,1002.3
2018-04-28T12:52:42.439Z,1002.3
2018-04-28T12:53:45.224Z,1002.3
2018-04-28T12:54:47.911Z,1002.3
2018-04-28T12:55:50.309Z,1002.3
2018-04-28T12:56:52.988Z,1002.3
2018-04-28T12:57:55.380Z,1002.3
2018-04-28T12:58:57.774Z,1002.3
2018-04-28T13:00:00.185Z,1002.3
2018-04-28T13:01:02.581Z,1002.4
2018-04-28T13:02:04.976Z,1002.4
2018-04-28T13:03:07.376Z,1002.3
2018-04-28T13:04:09.770Z,1002.2
2018-04-28T13:05:12.455Z,1002.3
2018-04-28T13:06:14.868Z,1002.3
2018-04-28T13:07:17.334Z,1002.3